American Canyon, CA

5:35 AM PDT on October 01, 2014 (GMT -0700)
Federal Terrace, VSFCD | Change Station
CLOSE
Current Station
Personal Weather Station
Location: Vallejo, CA
Elevation: 34 ft
Nearby Weather Stations

Elev 34 ft 38.13 °N, 122.27 °W | Updated 7 minutes ago

Clear
Clear
57.9 °F
Feels Like 57.9 °F
N
0.0
Wind Variable Wind from SW
Gusts 1.0 mph

Today
High -- | Low -- °F
--% Chance of Precip.
Yesterday
High -- | Low -- °F
Precip. -- in
7:04 AM 6:51 PM
Waxing Crescent, 47% visible
Pressure 29.83 in
Visibility 10.0 miles
Clouds Clear
Dew Point 55 °F
Humidity 89%
Rainfall 0.00 in
Snow Depth 1 in , 0 in , 0 in
UV 0.0 out of 12
Pollen 3.60 out of 12
Air Quality Not available.
Flu Activity Not available.
METAR KAPC 011054Z AUTO 00000KT 10SM CLR 11/10 A2985 RMK AO2 SLP100 T01060100

More Conditions Fewer Conditions

Pressure 29.83 in
Visibility 10.0 miles
Clouds Clear
Dew Point 55 °F
Humidity 89%
Rainfall 0.00 in
Snow Depth 1 in , 0 in , 0 in
UV 0.0 out of 12
Pollen 3.60 out of 12
Air Quality Not available.
Flu Activity Not available.
METAR KAPC 011054Z AUTO 00000KT 10SM CLR 11/10 A2985 RMK AO2 SLP100 T01060100

More Conditions Fewer Conditions

10-Day Weather Forecast

Almanac

Astronomy

Oct. 01, 2014 Rise Set
Actual Time 7:04 AM PDT 6:51 PM PDT
Civil Twilight 6:38 AM PDT 7:18 PM PDT
Nautical Twilight 6:07 AM PDT 7:48 PM PDT
Astronomical Twilight 5:37 AM PDT 8:19 PM PDT
Moon 2:06 PM PDT No Moon Set
Length of Visible Light 12h 39m
Length of Day
11h 46m
Tomorrow will be 2m 26s shorter.
Waxing Crescent, 47% of the Moon is Illuminated
Today
Waxing Crescent
Oct 1
First Quarter
Oct 8
Full
Oct 15
Last Quarter
Oct 23
New

Today's Extremes

State Highs State Lows

Community

WunderPhotos

Upload Photos

1,757,916 photos uploaded!

Nearby

Air Quality

  Air Quality AQ Index Pollutant
Yesterday Good
OZONE
Wednesday Good
PM2.5
Thursday Moderate
PM2.5
Friday Moderate
PM2.5
Saturday Moderate
PM2.5
Sunday Moderate
PM2.5

Snow Depth

Station Depth Elevation
Ebbetts Pass 1 in 8700 ft
Tahoe City Cross 0 in 6750 ft
Independence Lake 0 in 8450 ft
Echo Peak 1 in 7800 ft
Truckee #2 0 in 6400 ft

Earthquake Activity

City Distance Mag. Time & Date
East Foothills, California 54 miles 2.6 3:34 PM PDT
2014-09-30
South Dos Palos, California 131 miles 2.7 3:08 PM PDT
2014-09-30
South Dos Palos, California 131 miles 2.5 9:18 PM PDT
2014-09-29
American Canyon, California 2 miles 2.5 12:17 AM PDT
2014-09-29
Minimum magnitude displayed is 2.5.

Coastal Water Temperatures

Place Temperature
San Francisco, CA 64.9 °F
Richmond, CA 68.0 °F
Port Chicago, CA 69.1 °F

Nearby Weather Stations